Time;durP1;ratioP1;P1;durP2;ratioP2;P2;SDS_P1;SDS_P2;PMS_P1;PMS_P2;Temp;Humidity;BMP_temperature;BMP_pressure;BME280_temperature;BME280_humidity;BME280_pressure;Samples;Min_cycle;Max_cycle;Signal;HPM_P1;HPM_P2
2020/12/06 00:02:22;;;;;;;34;30.5;;;;;;;2.92;83.84863;98203.91;;;;
2020/12/06 00:12:20;;;;;;;49.6;36.5;;;;;;;2.78;83.70996;98191.41;;;;
2020/12/06 00:22:18;;;;;;;46.3;33.8;;;;;;;2.76;86.10449;98197.02;;;;
2020/12/06 00:32:18;;;;;;;45.1;34.5;;;;;;;2.76;87.17578;98202.33;;;;
2020/12/06 00:42:13;;;;;;;35.7;25.9;;;;;;;3.1;88.10742;98202.57;;;;
2020/12/06 00:52:11;;;;;;;30.7;23.4;;;;;;;3.23;87.82324;98202.02;;;;
2020/12/06 01:02:09;;;;;;;38;27.1;;;;;;;3;87.24707;98206.05;;;;
2020/12/06 01:12:07;;;;;;;45.1;36.1;;;;;;;2.62;83.83496;98203.92;;;;
2020/12/06 01:22:05;;;;;;;43.7;32.9;;;;;;;2.12;84.13477;98212.6;;;;
2020/12/06 01:32:03;;;;;;;42;31.7;;;;;;;1.78;86.99902;98198.95;;;;
2020/12/06 01:42:01;;;;;;;40.1;31.8;;;;;;;1.78;87.20801;98214.08;;;;
2020/12/06 01:51:59;;;;;;;45.8;35.7;;;;;;;1.49;86.55566;98219.79;;;;
2020/12/06 02:01:56;;;;;;;41.4;31.5;;;;;;;1.23;87.03125;98233.18;;;;
2020/12/06 02:11:54;;;;;;;38.3;27.9;;;;;;;1.1;87.63184;98223.81;;;;
2020/12/06 02:21:52;;;;;;;31.2;27.9;;;;;;;0.95;87.00684;98221.05;;;;
2020/12/06 02:31:50;;;;;;;38.9;29.4;;;;;;;0.89;88.35938;98212.26;;;;
2020/12/06 02:41:47;;;;;;;49.5;34.4;;;;;;;0.77;88.44336;98222.23;;;;
2020/12/06 02:51:45;;;;;;;40.7;33.6;;;;;;;0.69;88.21777;98233.32;;;;
2020/12/06 03:01:43;;;;;;;35.9;27.6;;;;;;;0.59;87.97754;98227.91;;;;
2020/12/06 03:11:41;;;;;;;41.9;33;;;;;;;0.57;88.88574;98230.02;;;;
2020/12/06 03:21:38;;;;;;;36;27.1;;;;;;;0.51;89.10352;98236.33;;;;
2020/12/06 03:31:36;;;;;;;42.5;30.2;;;;;;;0.19;87.36816;98227.52;;;;
2020/12/06 03:41:33;;;;;;;32.4;24;;;;;;;0.32;89.00977;98227.92;;;;
2020/12/06 03:51:31;;;;;;;30.1;23.2;;;;;;;0.25;87.49121;98229.97;;;;
2020/12/06 04:01:29;;;;;;;32.2;23.8;;;;;;;0.15;88.05078;98231.71;;;;
2020/12/06 04:11:26;;;;;;;39;25.1;;;;;;;0.07;88.25391;98229.53;;;;
2020/12/06 04:21:24;;;;;;;33.5;28.5;;;;;;;0.15;89.64355;98227.22;;;;
2020/12/06 04:31:22;;;;;;;26.7;23;;;;;;;0.2;90.40039;98243.19;;;;
2020/12/06 04:41:19;;;;;;;36.5;26.6;;;;;;;0.26;90.97168;98244.02;;;;
2020/12/06 04:51:20;;;;;;;29.2;21.7;;;;;;;0.28;90.20703;98241.91;;;;
2020/12/06 05:01:14;;;;;;;22.4;19.3;;;;;;;0.14;89.30176;98236.2;;;;
2020/12/06 05:11:12;;;;;;;25.6;20.1;;;;;;;0.24;89.90137;98230.23;;;;
2020/12/06 05:21:10;;;;;;;28.7;20.8;;;;;;;0.17;90.18262;98226.98;;;;
2020/12/06 05:31:08;;;;;;;24.7;15.8;;;;;;;0.12;89.22949;98232.21;;;;
2020/12/06 05:41:07;;;;;;;26.4;19.2;;;;;;;0.09;88.9043;98240.66;;;;
2020/12/06 05:51:03;;;;;;;26.9;22.7;;;;;;;0.01;88.80176;98252.49;;;;
2020/12/06 06:01:00;;;;;;;39.2;29;;;;;;;-0.19;88.34473;98255.7;;;;
2020/12/06 06:10:58;;;;;;;27.7;23.1;;;;;;;-0.19;88.17969;98254.91;;;;
2020/12/06 06:20:56;;;;;;;39.7;27.4;;;;;;;-0.23;87.77539;98270.48;;;;
2020/12/06 06:30:53;;;;;;;31.9;22.2;;;;;;;-0.39;87.73145;98273.98;;;;
2020/12/06 06:40:51;;;;;;;36.8;27.9;;;;;;;-0.28;88.97266;98270.44;;;;
2020/12/06 06:50:49;;;;;;;31.2;24.8;;;;;;;-0.16;89.9502;98283.54;;;;
2020/12/06 07:00:46;;;;;;;42.6;33.6;;;;;;;0.01;90.87402;98281.63;;;;
2020/12/06 07:10:44;;;;;;;47.7;34.4;;;;;;;0.39;91.625;98296.63;;;;
2020/12/06 07:20:42;;;;;;;37.7;29.4;;;;;;;0.85;91.72266;98287.28;;;;
2020/12/06 07:30:39;;;;;;;48.1;38.9;;;;;;;1.2;91.5791;98308.81;;;;
2020/12/06 07:40:37;;;;;;;41.4;33.8;;;;;;;1.66;91.5;98296.66;;;;
2020/12/06 07:50:35;;;;;;;38.7;23.8;;;;;;;2.51;92.68457;98276.78;;;;
2020/12/06 08:00:37;;;;;;;36.2;26.9;;;;;;;3.26;91.86328;98278.73;;;;
2020/12/06 08:10:31;;;;;;;26.1;21.6;;;;;;;3.78;90.40332;98280.23;;;;
2020/12/06 08:20:29;;;;;;;40.7;31.4;;;;;;;4.39;88.12695;98302.94;;;;
2020/12/06 08:30:28;;;;;;;29.6;26.3;;;;;;;4.67;87.77441;98288.11;;;;
2020/12/06 08:40:25;;;;;;;44.6;32.2;;;;;;;5.33;85.94043;98284.95;;;;
2020/12/06 08:50:24;;;;;;;26.6;22.4;;;;;;;5.76;83.05469;98278.64;;;;
2020/12/06 09:00:22;;;;;;;23.6;21.1;;;;;;;6.16;81.89258;98287.33;;;;
2020/12/06 09:10:21;;;;;;;22.8;20.4;;;;;;;6.51;80.39746;98279.66;;;;
2020/12/06 09:20:19;;;;;;;25.3;22.2;;;;;;;6.83;79.32715;98275.47;;;;
2020/12/06 09:30:20;;;;;;;28;21.6;;;;;;;7.18;78.94336;98268.77;;;;
2020/12/06 09:40:19;;;;;;;21.5;19.2;;;;;;;7.46;78.00781;98235.59;;;;
2020/12/06 09:50:14;;;;;;;25.7;19.5;;;;;;;7.98;77.03809;98221.69;;;;
2020/12/06 10:00:13;;;;;;;31;24.2;;;;;;;8.59;74.95605;98210.48;;;;
2020/12/06 10:10:12;;;;;;;40.3;34.3;;;;;;;9.11;73.25488;98192.05;;;;
2020/12/06 10:20:11;;;;;;;23.7;19.4;;;;;;;9.66;73.13379;98183.61;;;;
2020/12/06 10:30:09;;;;;;;18.8;16.8;;;;;;;10.12;70.71582;98178.53;;;;
2020/12/06 10:40:20;;;;;;;20.5;16.5;;;;;;;10.41;70.20996;98151.03;;;;
2020/12/06 10:50:07;;;;;;;20.1;15.6;;;;;;;10.74;68.76953;98164.8;;;;
2020/12/06 11:00:06;;;;;;;13.8;12.4;;;;;;;11.15;67.83789;98154.27;;;;
2020/12/06 11:10:05;;;;;;;22.1;14.7;;;;;;;11.37;66.2832;98131.67;;;;
2020/12/06 11:20:04;;;;;;;14.7;11.5;;;;;;;11.8;64.35059;98112.61;;;;
2020/12/06 11:30:06;;;;;;;12.2;10.9;;;;;;;12.03;63.97559;98113.89;;;;
2020/12/06 11:40:02;;;;;;;15.5;10.9;;;;;;;12.26;63.00879;98122.45;;;;
2020/12/06 11:50:01;;;;;;;12.5;10.4;;;;;;;12.56;61.68457;98096.95;;;;
2020/12/06 12:00:01;;;;;;;10.1;7.7;;;;;;;12.57;60.99316;98083.08;;;;
2020/12/06 12:10:00;;;;;;;10.1;7.6;;;;;;;12.95;58.95801;98082.86;;;;
2020/12/06 12:19:59;;;;;;;10.6;7.7;;;;;;;13.06;57.60449;98075.89;;;;
2020/12/06 12:29:58;;;;;;;13.1;8.9;;;;;;;13.18;57.08301;98063.55;;;;
2020/12/06 12:39:58;;;;;;;12.3;7.7;;;;;;;12.99;57.75488;98051.31;;;;
2020/12/06 12:49:57;;;;;;;10.4;6;;;;;;;12.87;56.67773;98045.89;;;;
2020/12/06 12:59:56;;;;;;;7.9;5;;;;;;;12.84;56.06934;98034.95;;;;
2020/12/06 13:09:55;;;;;;;8.8;5.1;;;;;;;12.57;54.88281;98023.61;;;;
2020/12/06 13:19:55;;;;;;;5.6;3.8;;;;;;;12.41;54.20117;98013.77;;;;
2020/12/06 13:29:54;;;;;;;6.1;4.3;;;;;;;12.07;53.8623;98014.88;;;;
2020/12/06 13:39:53;;;;;;;6;3.7;;;;;;;11.57;54.90527;98017.59;;;;
2020/12/06 13:49:52;;;;;;;6.3;3.6;;;;;;;11.26;54.76367;98012.53;;;;
2020/12/06 13:59:51;;;;;;;6.3;4.1;;;;;;;10.99;55.37793;98015.69;;;;
2020/12/06 14:09:50;;;;;;;9;5.4;;;;;;;10.82;56.32129;98023.84;;;;
2020/12/06 14:19:49;;;;;;;9;5.5;;;;;;;10.53;57.16895;98019.16;;;;
2020/12/06 14:29:48;;;;;;;9.2;5.2;;;;;;;10.21;58.96387;98011.59;;;;
2020/12/06 14:39:47;;;;;;;7.7;5.6;;;;;;;9.85;60.85156;98015.4;;;;
2020/12/06 14:49:46;;;;;;;6.6;5.2;;;;;;;9.62;61.80273;98011.25;;;;
2020/12/06 14:59:44;;;;;;;9;7.2;;;;;;;9.55;62.16699;98022.48;;;;
2020/12/06 15:09:43;;;;;;;9.3;6.8;;;;;;;9.26;62.93945;98016.89;;;;
2020/12/06 15:19:42;;;;;;;9.5;6.6;;;;;;;8.97;63.73242;98005.88;;;;
2020/12/06 15:29:40;;;;;;;9.4;7.2;;;;;;;8.86;64.21191;98009.94;;;;
2020/12/06 15:39:39;;;;;;;9.8;7.3;;;;;;;9;64.07617;98016.8;;;;
2020/12/06 15:49:38;;;;;;;17.6;11.6;;;;;;;8.75;64.4873;98027.42;;;;
2020/12/06 15:59:37;;;;;;;14.4;8.8;;;;;;;8.56;65.56543;98022.28;;;;
2020/12/06 16:09:35;;;;;;;13;9.7;;;;;;;8.36;66.37891;98009.38;;;;
2020/12/06 16:19:34;;;;;;;13.4;10.9;;;;;;;7.87;69.10547;98005.69;;;;
2020/12/06 16:29:32;;;;;;;18.2;14.7;;;;;;;7.21;71.6123;97997.5;;;;
2020/12/06 16:39:31;;;;;;;18.6;13.3;;;;;;;6.38;73.84766;98007.38;;;;
2020/12/06 16:49:29;;;;;;;23.3;18;;;;;;;5.68;76.19531;97987.88;;;;
2020/12/06 16:59:28;;;;;;;20.2;15.4;;;;;;;5.35;77.08496;97999.55;;;;
2020/12/06 17:09:26;;;;;;;23;18.2;;;;;;;4.94;78.65918;97989.39;;;;
2020/12/06 17:19:25;;;;;;;20.6;17.1;;;;;;;4.53;79.72949;97974.91;;;;
2020/12/06 17:29:25;;;;;;;26.2;16.2;;;;;;;4.26;80.16699;97990.66;;;;
2020/12/06 17:39:21;;;;;;;26.7;20.1;;;;;;;3.96;81.01172;97999.7;;;;
2020/12/06 17:49:20;;;;;;;30.4;20;;;;;;;3.71;82.01758;98016.7;;;;
2020/12/06 17:59:20;;;;;;;19.5;16.5;;;;;;;3.49;82.72852;98021.63;;;;
2020/12/06 18:09:15;;;;;;;20.6;15.1;;;;;;;3.3;83.08203;98021.44;;;;
2020/12/06 18:19:14;;;;;;;26.2;19.3;;;;;;;3.16;83.00781;98017.01;;;;
2020/12/06 18:29:12;;;;;;;31;22.5;;;;;;;3.09;83.69336;98027.92;;;;
2020/12/06 18:39:10;;;;;;;23.6;18.3;;;;;;;2.94;84.72559;98017.36;;;;
2020/12/06 18:49:08;;;;;;;21.6;16.9;;;;;;;2.9;84.62988;98025.09;;;;
2020/12/06 18:59:06;;;;;;;20.2;16;;;;;;;2.83;84.60449;98011.27;;;;
2020/12/06 19:09:04;;;;;;;23.1;15.6;;;;;;;2.68;84.45313;98027.27;;;;
2020/12/06 19:19:02;;;;;;;38.4;23.1;;;;;;;2.46;85.13867;98024.14;;;;
2020/12/06 19:29:00;;;;;;;37.2;22.2;;;;;;;2.28;85.45605;98027.34;;;;
2020/12/06 19:38:57;;;;;;;25.2;17.6;;;;;;;2.2;85.34277;98018.04;;;;
2020/12/06 19:48:57;;;;;;;25.4;16.8;;;;;;;2.01;85.73535;98028.41;;;;
2020/12/06 19:58:53;;;;;;;22.2;19.3;;;;;;;1.93;86.40332;98044.89;;;;
2020/12/06 20:08:51;;;;;;;27.5;19.9;;;;;;;1.78;86.81152;98060.81;;;;
2020/12/06 20:18:49;;;;;;;26;18.4;;;;;;;1.73;87.19922;98039.56;;;;
2020/12/06 20:28:55;;;;;;;22.4;16.3;;;;;;;1.68;86.8584;98050.17;;;;
2020/12/06 20:38:44;;;;;;;22.1;17.4;;;;;;;1.44;87.58008;98043.74;;;;
2020/12/06 20:48:42;;;;;;;20;13.6;;;;;;;1.41;87.82813;98030.99;;;;
2020/12/06 20:58:41;;;;;;;18.1;13.1;;;;;;;1.36;87.88281;98028.31;;;;
2020/12/06 21:08:38;;;;;;;21.4;14.4;;;;;;;1.36;88.10254;98041.59;;;;
2020/12/06 21:18:37;;;;;;;19.9;13.8;;;;;;;1.31;87.68652;98050.35;;;;
2020/12/06 21:28:34;;;;;;;19.3;12.6;;;;;;;1.13;87.92285;98034.09;;;;
2020/12/06 21:38:31;;;;;;;14.6;12;;;;;;;1.06;88.08398;98036.18;;;;
2020/12/06 21:48:29;;;;;;;12.9;11.2;;;;;;;1;87.9834;98048.64;;;;
2020/12/06 21:58:27;;;;;;;18.5;12.9;;;;;;;0.83;88.26953;98043.5;;;;
2020/12/06 22:08:24;;;;;;;19.2;12.7;;;;;;;0.71;88.4082;98040.27;;;;
2020/12/06 22:18:22;;;;;;;18.9;13.1;;;;;;;0.65;88.90234;98041.3;;;;
2020/12/06 22:28:20;;;;;;;15.8;11.3;;;;;;;0.6;88.94629;98017.39;;;;
2020/12/06 22:38:23;;;;;;;20;14.1;;;;;;;0.54;89.10938;98017.63;;;;
2020/12/06 22:48:15;;;;;;;14.9;11.4;;;;;;;0.45;89.2002;98019.98;;;;
2020/12/06 22:58:13;;;;;;;13.7;10.3;;;;;;;0.4;89.15625;98006.68;;;;
2020/12/06 23:08:10;;;;;;;14.5;11.6;;;;;;;0.29;89.47363;98005.81;;;;
2020/12/06 23:18:08;;;;;;;13.7;10.3;;;;;;;0.29;89.69336;97989.11;;;;
2020/12/06 23:28:05;;;;;;;17.2;13.6;;;;;;;0.22;89.52441;98001.78;;;;
2020/12/06 23:38:04;;;;;;;17.7;12.6;;;;;;;0.12;89.50391;98007.02;;;;
2020/12/06 23:48:01;;;;;;;13.8;10.2;;;;;;;0.06;89.69043;97995.6;;;;
2020/12/06 23:57:58;;;;;;;21.3;13.5;;;;;;;0.02;90.1875;97968.02;;;;
